Decoded TAF's for Botswana

   
 
Print Page
 
 

Francistown - Botswana, FBFT

ADDS - TAFS form results

Aviation Digital Data Service (ADDS)

Output produced by TAFs form (0553 UTC 25 February 2018)
found at http://aviationweather.gov/adds/tafs/
 
Forecast for: FBFT (FRANCISTOWN , BW)
Text: TAF FBFT 250300Z 2506/2515 36009KT 9999 BKN014 SCT065
Forecast period: 0600 to 1500 UTC 25 February 2018
Forecast type: FROM: standard forecast or significant change
Winds: from the N (360 degrees) at 10 MPH (9 knots; 4.7 m/s)
Visibility: 6 or more miles (10+ km)
Ceiling: 1400 feet AGL
Clouds: broken clouds at 1400 feet AGL
scattered clouds at 6500 feet AGL
Weather: no significant weather forecast for this period
Text: PROB30
Forecast period: 0600 to 1500 UTC 25 February 2018
Forecast type: TEMPORARY: The following changes expected for less than half the time period
Clouds: few clouds at 3000 feet AGL
Weather: TSRA  (rain associated with thunderstorm(s))

Array
Ghanzi - Botswana, FBGZ

ADDS - TAFS form results

Aviation Digital Data Service (ADDS)

Output produced by TAFs form (0553 UTC 25 February 2018)
found at http://aviationweather.gov/adds/tafs/
 
You entered "FBGZ"

Sorry, either there are no data available for your request or you did not enter any valid ICAO airport abbreviations.

See stations.txt for a list of known METAR and TAF locations. Then go back to the ADDS METARs or TAFs page and try again
 
Please try again and, if problems persist, then send mail to ncep.awc.adds@noaa.gov
Array
Kasane - Botswana, FBKE

ADDS - TAFS form results

Aviation Digital Data Service (ADDS)

Output produced by TAFs form (0553 UTC 25 February 2018)
found at http://aviationweather.gov/adds/tafs/
 
Forecast for: FBKE (KASANE , BW)
Text: TAF FBKE 250300Z 2506/2515 35010KT 9999 BKN014 SCT065
Forecast period: 0600 to 1300 UTC 25 February 2018
Forecast type: FROM: standard forecast or significant change
Winds: from the N (350 degrees) at 12 MPH (10 knots; 5.2 m/s)
Visibility: 6 or more miles (10+ km)
Ceiling: 1400 feet AGL
Clouds: broken clouds at 1400 feet AGL
scattered clouds at 6500 feet AGL
Weather: no significant weather forecast for this period
Text: PROB30
Forecast period: 0600 to 1300 UTC 25 February 2018
Forecast type: TEMPORARY: The following changes expected for less than half the time period
Clouds: few clouds at 3000 feet AGL
Weather: TSRA  (rain associated with thunderstorm(s))
Text: TEMPO 2506/2513 TSRA FEW030CB
Forecast period: 1300 to 1500 UTC 25 February 2018
Forecast type: BECOMING: Conditions expected to become as follows by 1500 UTC 25 February 2018
Winds: from the N (350 degrees) at 12 MPH (10 knots; 5.2 m/s)
Visibility: 6 or more miles (10+ km)
Clouds: scattered clouds at 2500 feet AGL
Weather: no significant weather forecast for this period

Array
Maun - Botswana, FBMN

ADDS - TAFS form results

Aviation Digital Data Service (ADDS)

Output produced by TAFs form (0553 UTC 25 February 2018)
found at http://aviationweather.gov/adds/tafs/
 
Forecast for: FBMN (MAUN , BW)
Text: TAF FBMN 250300Z 2506/2515 12005KT 9999 BKN014 SCT070
Forecast period: 0600 to 1300 UTC 25 February 2018
Forecast type: FROM: standard forecast or significant change
Winds: from the ESE (120 degrees) at 6 MPH (5 knots; 2.6 m/s)
Visibility: 6 or more miles (10+ km)
Ceiling: 1400 feet AGL
Clouds: broken clouds at 1400 feet AGL
scattered clouds at 7000 feet AGL
Weather: no significant weather forecast for this period
Text: PROB30
Forecast period: 0600 to 1300 UTC 25 February 2018
Forecast type: TEMPORARY: The following changes expected for less than half the time period
Clouds: few clouds at 3000 feet AGL
Weather: TSRA  (rain associated with thunderstorm(s))
Text: TEMPO 2506/2513 TSRA FEW030CB
Forecast period: 1300 to 1500 UTC 25 February 2018
Forecast type: BECOMING: Conditions expected to become as follows by 1500 UTC 25 February 2018
Winds: from the ESE (120 degrees) at 6 MPH (5 knots; 2.6 m/s)
Visibility: 6 or more miles (10+ km)
Clouds: scattered clouds at 2500 feet AGL
Weather: no significant weather forecast for this period

Array
Gaberone Sir Seretsi Kama - Botswana, FBSK

ADDS - TAFS form results

Aviation Digital Data Service (ADDS)

Output produced by TAFs form (0553 UTC 25 February 2018)
found at http://aviationweather.gov/adds/tafs/
 
Forecast for: FBSK (SIR SERETSE KHAM, BW)
Text: TAF FBSK 250300Z 2506/2612 16005KT 9999 BKN014
Forecast period: 0600 to 1200 UTC 25 February 2018
Forecast type: FROM: standard forecast or significant change
Winds: from the SSE (160 degrees) at 6 MPH (5 knots; 2.6 m/s)
Visibility: 6 or more miles (10+ km)
Ceiling: 1400 feet AGL
Clouds: broken clouds at 1400 feet AGL
Weather: no significant weather forecast for this period
Text: PROB30
Forecast period: 0600 to 1000 UTC 25 February 2018
Forecast type: TEMPORARY: The following changes expected for less than half the time period
Clouds: few clouds at 3000 feet AGL
Weather: TSRA  (rain associated with thunderstorm(s))
Text: TEMPO 2506/2510 TSRA FEW030CB
Forecast period: 1200 UTC 25 February 2018 to 0300 UTC 26 February 2018
Forecast type: BECOMING: Conditions expected to become as follows by 1400 UTC 25 February 2018
Winds: from the SSE (160 degrees) at 6 MPH (5 knots; 2.6 m/s)
Visibility: 6 or more miles (10+ km)
Clouds: scattered clouds at 2500 feet AGL
Weather: no significant weather forecast for this period
Text: BECMG 2512/2514 SCT025
Forecast period: 0300 to 1000 UTC 26 February 2018
Forecast type: BECOMING: Conditions expected to become as follows by 0500 UTC 26 February 2018
Winds: from the SSE (160 degrees) at 6 MPH (5 knots; 2.6 m/s)
Visibility: 6 or more miles (10+ km)
Ceiling: 1300 feet AGL
Clouds: broken clouds at 1300 feet AGL
Weather: no significant weather forecast for this period
Text: BECMG 2603/2605 BKN013
Forecast period: 1000 to 1200 UTC 26 February 2018
Forecast type: BECOMING: Conditions expected to become as follows by 1200 UTC 26 February 2018
Winds: from the SSE (160 degrees) at 6 MPH (5 knots; 2.6 m/s)
Visibility: 6 or more miles (10+ km)
Clouds: scattered clouds at 2500 feet AGL
Weather: no significant weather forecast for this period

Array
Selebi Phikwe - Botswana, FBSP

ADDS - TAFS form results

Aviation Digital Data Service (ADDS)

Output produced by TAFs form (0553 UTC 25 February 2018)
found at http://aviationweather.gov/adds/tafs/
 
Forecast for: FBSP (SELEBI PHIKWE , BW)
Text: TAF FBSP 250300Z 2506/2515 34005KT 9999 BKN014 SCT065
Forecast period: 0600 to 1300 UTC 25 February 2018
Forecast type: FROM: standard forecast or significant change
Winds: from the NNW (340 degrees) at 6 MPH (5 knots; 2.6 m/s)
Visibility: 6 or more miles (10+ km)
Ceiling: 1400 feet AGL
Clouds: broken clouds at 1400 feet AGL
scattered clouds at 6500 feet AGL
Weather: no significant weather forecast for this period
Text: PROB30
Forecast period: 0600 to 1300 UTC 25 February 2018
Forecast type: TEMPORARY: The following changes expected for less than half the time period
Clouds: few clouds at 3000 feet AGL
Weather: TSRA  (rain associated with thunderstorm(s))
Text: TEMPO 2506/2513 TSRA FEW030CB
Forecast period: 1300 to 1500 UTC 25 February 2018
Forecast type: BECOMING: Conditions expected to become as follows by 1500 UTC 25 February 2018
Winds: from the NNW (340 degrees) at 6 MPH (5 knots; 2.6 m/s)
Visibility: 6 or more miles (10+ km)
Clouds: scattered clouds at 2500 feet AGL
Weather: no significant weather forecast for this period

Array